Time;durP1;ratioP1;P1;durP2;ratioP2;P2;SDS_P1;SDS_P2;PMS_P1;PMS_P2;Temp;Humidity;BMP_temperature;BMP_pressure;BME280_temperature;BME280_humidity;BME280_pressure;Samples;Min_cycle;Max_cycle;Signal;HPM_P1;HPM_P2
2023/07/22 00:01:13;;;;;;;21.88;20.77;;;;;;;-141.02;72.61;42584.47;5135887;27;20224;-64
2023/07/22 00:03:40;;;;;;;20.73;19.63;;;;;;;-141.02;73.19;42555.66;5135764;27;20661;-64
2023/07/22 00:06:08;;;;;;;21.20;20.10;;;;;;;-141.02;73.51;42540.31;5136836;27;20239;-60
2023/07/22 00:08:37;;;;;;;21.50;20.40;;;;;;;-141.02;73.93;42532.63;5135874;27;20723;-62
2023/07/22 00:11:05;;;;;;;21.40;20.30;;;;;;;-141.02;74.57;42513.44;5135987;27;20220;-64
2023/07/22 00:13:32;;;;;;;20.33;19.33;;;;;;;-141.02;75.58;42498.06;5135555;27;20227;-64
2023/07/22 00:16:00;;;;;;;20.05;19.05;;;;;;;-141.02;75.83;42448.16;5135874;27;20308;-58
2023/07/22 00:18:28;;;;;;;21.73;20.63;;;;;;;-141.02;76.86;42448.16;5135812;27;20715;-59
2023/07/22 00:20:55;;;;;;;21.60;20.50;;;;;;;-141.02;77.61;42413.63;5135792;27;20195;-63
2023/07/22 00:23:22;;;;;;;21.20;20.10;;;;;;;-141.02;78.10;42405.94;5135848;27;20196;-64
2023/07/22 00:25:51;;;;;;;19.95;18.95;;;;;;;-141.02;78.45;42396.34;5135572;27;20231;-64
2023/07/22 00:28:18;;;;;;;20.80;19.80;;;;;;;-141.02;79.21;42373.31;5135671;27;20316;-61
2023/07/22 00:30:45;;;;;;;20.65;19.65;;;;;;;-141.02;79.79;42348.34;5135233;27;20207;-62
2023/07/22 00:33:13;;;;;;;20.95;19.85;;;;;;;-141.02;80.72;42338.75;5135581;27;20707;-62
2023/07/22 00:35:40;;;;;;;19.60;18.60;;;;;;;-141.02;81.31;42325.31;5134396;27;20215;-65
2023/07/22 00:38:09;;;;;;;22.15;20.95;;;;;;;-141.02;81.41;42306.13;5135654;27;20275;-60
2023/07/22 00:40:37;;;;;;;19.75;18.75;;;;;;;-141.02;82.16;42279.25;5135049;27;20267;-62
2023/07/22 00:43:07;;;;;;;19.13;18.23;;;;;;;-141.02;82.96;42279.25;5135291;27;20202;-62
2023/07/22 00:45:34;;;;;;;19.15;18.17;;;;;;;-141.02;83.75;42267.75;5134972;27;20651;-63
2023/07/22 00:48:01;;;;;;;20.00;19.00;;;;;;;-141.02;84.09;42225.50;5134994;27;20651;-65
2023/07/22 00:50:28;;;;;;;19.77;18.77;;;;;;;-141.02;85.10;42198.63;5134942;27;20224;-64
2023/07/22 00:52:55;;;;;;;19.15;18.25;;;;;;;-141.02;85.73;42187.13;5135261;27;20253;-64
2023/07/22 00:55:23;;;;;;;19.48;18.58;;;;;;;-141.02;86.75;42154.50;5134802;27;20357;-64
2023/07/22 00:57:50;;;;;;;19.23;18.33;;;;;;;-141.02;87.37;42139.13;5135403;27;20197;-64
2023/07/22 01:01:06;;;;;;;19.10;18.20;;;;;;;-141.02;88.02;42102.66;5134599;27;20314;-65
2023/07/22 01:04:17;;;;;;;19.25;18.35;;;;;;;-141.02;88.37;42071.97;5134681;27;20247;-62
2023/07/22 01:06:48;;;;;;;18.80;17.90;;;;;;;-141.02;88.54;42073.88;5134651;27;20725;-65
2023/07/22 01:09:18;;;;;;;19.13;18.23;;;;;;;-141.02;89.28;42077.72;5134776;27;20707;-63
2023/07/22 01:11:45;;;;;;;18.40;17.60;;;;;;;-141.02;89.65;42045.09;5134807;27;20239;-57
2023/07/22 01:14:12;;;;;;;17.90;17.10;;;;;;;-141.02;90.11;42043.19;5134455;27;20663;-65
2023/07/22 01:17:02;;;;;;;18.80;17.90;;;;;;;-141.02;91.04;41983.69;5134643;27;20189;-60
2023/07/22 01:23:09;;;;;;;18.10;17.30;;;;;;;-141.02;92.04;41937.63;5134381;27;20202;-62
2023/07/22 01:26:30;;;;;;;17.75;16.95;;;;;;;-141.02;92.32;41895.38;5134546;27;20553;-63
2023/07/22 01:29:33;;;;;;;17.75;16.95;;;;;;;-141.02;92.75;41889.63;5130358;27;20263;-59
2023/07/22 01:32:34;;;;;;;17.85;17.05;;;;;;;-141.02;93.12;41870.44;5134075;27;20303;-64
2023/07/22 01:35:38;;;;;;;17.58;16.80;;;;;;;-141.02;93.85;41803.28;5133939;27;20223;-61
2023/07/22 01:38:58;;;;;;;17.58;16.77;;;;;;;-141.02;94.33;41803.28;5134240;27;20192;-59
2023/07/22 01:42:02;;;;;;;17.02;16.33;;;;;;;-141.02;95.74;41751.44;5133895;27;20192;-63
2023/07/22 01:45:07;;;;;;;17.38;16.60;;;;;;;-141.02;95.83;41701.56;5133871;27;20203;-59
2023/07/22 01:47:34;;;;;;;16.77;16.08;;;;;;;-141.02;96.20;41711.16;5133808;27;20278;-61
2023/07/22 01:50:43;;;;;;;17.10;16.40;;;;;;;-141.02;96.86;41716.91;5134012;27;20189;-62
2023/07/22 01:53:11;;;;;;;16.77;16.08;;;;;;;-141.02;97.18;41672.78;5134017;27;20223;-58
2023/07/22 01:56:16;;;;;;;16.92;16.23;;;;;;;-141.02;97.56;41653.59;5134052;27;20594;-64
2023/07/22 02:02:50;;;;;;;16.30;15.60;;;;;;;-141.02;98.50;41569.13;5133814;27;20568;-64
2023/07/22 02:06:05;;;;;;;16.30;15.60;;;;;;;-141.02;99.20;41526.91;5133493;27;20287;-65
2023/07/22 02:09:13;;;;;;;15.55;14.95;;;;;;;-141.02;99.25;41534.59;5133704;27;20250;-65
2023/07/22 02:15:03;;;;;;;15.90;15.30;;;;;;;-141.02;99.85;41486.63;5133578;27;20184;-65
2023/07/22 02:17:33;;;;;;;15.60;15.00;;;;;;;-141.02;100.00;41454.00;5133296;27;20192;-59
2023/07/22 02:20:52;;;;;;;15.55;14.95;;;;;;;-141.02;100.00;41446.31;5133232;27;20263;-65
2023/07/22 02:23:20;;;;;;;15.50;14.90;;;;;;;-141.02;100.00;41411.78;5133418;27;20385;-57
2023/07/22 02:26:01;;;;;;;15.20;14.65;;;;;;;-141.02;100.00;41392.59;5133329;27;20204;-57
2023/07/22 02:29:16;;;;;;;14.65;14.15;;;;;;;-141.02;100.00;41361.91;5129561;27;20208;-58
2023/07/22 02:32:51;;;;;;;14.73;14.23;;;;;;;-141.02;100.00;41319.69;5132534;27;20275;-59
2023/07/22 02:42:30;;;;;;;14.55;14.05;;;;;;;-141.02;100.00;41242.91;5121537;27;20381;-60
2023/07/22 02:44:57;;;;;;;14.38;13.88;;;;;;;-141.02;100.00;41262.09;5132942;27;20188;-63
2023/07/22 02:51:41;;;;;;;13.20;12.80;;;;;;;-141.02;100.00;41231.41;5133044;28;20195;-58
2023/07/22 02:57:34;;;;;;;13.73;13.25;;;;;;;-141.02;100.00;41342.69;5132817;28;20593;-59
2023/07/22 03:00:11;;;;;;;13.77;13.35;;;;;;;-141.02;100.00;41469.34;5136006;27;20681;-57
2023/07/22 03:02:45;;;;;;;13.35;12.95;;;;;;;-141.02;100.00;41615.19;5137079;27;20188;-65
2023/07/22 03:08:33;;;;;;;13.27;12.88;;;;;;;-141.02;100.00;41851.25;5137314;27;20244;-60
2023/07/22 03:14:38;;;;;;;13.13;12.73;;;;;;;-141.02;100.00;42208.25;5137244;27;20570;-62
2023/07/22 03:17:16;;;;;;;;;;;;;;;;;;;;;
2023/07/22 03:19:54;;;;;;;12.95;12.55;;;;;;;-141.02;100.00;42574.88;5094259;28;20233;-61
2023/07/22 03:22:33;;;;;;;13.38;12.98;;;;;;;-141.02;100.00;42739.94;5093827;28;20194;-57
2023/07/22 03:25:00;;;;;;;12.93;12.52;;;;;;;-141.02;100.00;42855.13;5093597;28;20723;-59
2023/07/22 03:30:49;;;;;;;12.10;11.70;;;;;;;-141.02;100.00;43072.06;5085314;28;20232;-57
2023/07/22 03:36:38;;;;;;;12.57;12.18;;;;;;;-141.02;100.00;43273.66;5093487;28;20191;-58
2023/07/22 03:40:00;;;;;;;12.90;12.50;;;;;;;-141.02;100.00;43344.72;5093492;28;20233;-57
2023/07/22 03:42:27;;;;;;;13.05;12.65;;;;;;;-141.02;100.00;43433.03;5093167;28;20186;-64
2023/07/22 03:45:23;;;;;;;13.07;12.68;;;;;;;-141.02;100.00;43532.88;5127950;27;20608;-58
2023/07/22 03:47:54;;;;;;;12.90;12.50;;;;;;;-141.02;100.00;43751.78;5136489;27;20265;-65
2023/07/22 03:50:21;;;;;;;13.00;12.60;;;;;;;-141.02;100.00;43903.50;5136433;27;20698;-58
2023/07/22 03:52:48;;;;;;;13.13;12.73;;;;;;;-141.02;100.00;43995.66;5136378;27;20283;-60
2023/07/22 03:55:15;;;;;;;13.60;13.20;;;;;;;-141.02;100.00;43978.38;5136582;27;20192;-61
2023/07/22 03:57:42;;;;;;;14.02;13.55;;;;;;;-141.02;100.00;44011.03;5136018;27;20228;-60
2023/07/22 04:00:10;;;;;;;14.43;13.93;;;;;;;-141.02;100.00;43999.50;5135894;27;20713;-58
2023/07/22 04:02:37;;;;;;;15.30;14.80;;;;;;;-141.02;100.00;44045.59;5135986;27;20671;-64
2023/07/22 04:05:48;;;;;;;16.10;15.50;;;;;;;-141.02;100.00;44018.72;5135923;27;20693;-59
2023/07/22 04:08:16;;;;;;;16.67;16.08;;;;;;;-141.02;100.00;44014.88;5134356;27;20257;-60
2023/07/22 04:10:53;;;;;;;17.30;16.60;;;;;;;-141.02;99.18;44057.13;5135899;27;20228;-59
2023/07/22 04:13:20;;;;;;;18.33;17.55;;;;;;;-141.02;98.14;44041.75;5136057;27;20210;-60
2023/07/22 04:15:47;;;;;;;17.80;17.00;;;;;;;-141.02;96.69;44068.63;5135997;27;20197;-59
2023/07/22 04:21:36;;;;;;;18.27;17.48;;;;;;;-141.02;93.61;44132.03;5135724;27;20226;-59
2023/07/22 04:24:43;;;;;;;17.98;17.17;;;;;;;-141.02;92.57;44203.06;5135512;27;20196;-59
2023/07/22 04:27:35;;;;;;;18.98;18.10;;;;;;;-141.02;91.72;44277.97;5136062;27;20204;-60
2023/07/22 04:30:03;;;;;;;19.38;18.48;;;;;;;-141.02;90.14;44260.69;5135729;27;20192;-60
2023/07/22 04:32:30;;;;;;;19.17;18.27;;;;;;;-141.02;89.68;44352.88;5135504;27;20787;-64
2023/07/22 04:34:57;;;;;;;20.08;19.17;;;;;;;-141.02;88.02;44243.41;5135615;27;20261;-58
2023/07/22 04:37:25;;;;;;;20.45;19.45;;;;;;;-141.02;88.25;44302.94;5135583;27;20203;-63
2023/07/22 04:39:55;;;;;;;19.88;18.98;;;;;;;-141.02;89.24;44354.81;5135153;27;20381;-63
2023/07/22 04:42:25;;;;;;;19.70;18.80;;;;;;;-141.02;88.62;44441.22;5135537;27;20235;-59
2023/07/22 04:45:07;;;;;;;19.42;18.52;;;;;;;-141.02;88.23;44335.59;5135405;27;20246;-64
2023/07/22 04:48:15;;;;;;;18.60;17.80;;;;;;;-141.02;88.23;44502.69;5135107;27;20199;-64
2023/07/22 04:50:44;;;;;;;19.25;18.35;;;;;;;-141.02;88.10;44498.84;5135413;27;20246;-60
2023/07/22 04:56:55;;;;;;;18.63;17.73;;;;;;;-141.02;86.82;44541.09;5135068;27;20205;-58
2023/07/22 04:59:23;;;;;;;17.92;17.13;;;;;;;-141.02;86.97;44664.03;5135083;27;20216;-61
2023/07/22 05:01:50;;;;;;;18.33;17.42;;;;;;;-141.02;88.02;44602.56;5135107;27;20311;-64
2023/07/22 05:04:17;;;;;;;18.08;17.27;;;;;;;-141.02;88.82;44690.94;5135006;27;20306;-63
2023/07/22 05:06:44;;;;;;;18.02;17.23;;;;;;;-141.02;90.34;44748.56;5135021;27;20200;-62
2023/07/22 05:09:11;;;;;;;18.58;17.75;;;;;;;-141.02;88.75;44617.94;5134967;27;20192;-57
2023/07/22 05:11:37;;;;;;;18.77;17.88;;;;;;;-141.02;88.63;44625.63;5134786;27;20271;-63
2023/07/22 05:14:06;;;;;;;18.42;17.52;;;;;;;-141.02;87.50;44571.84;5134533;27;20279;-60
2023/07/22 05:16:33;;;;;;;18.73;17.83;;;;;;;-141.02;88.56;44713.97;5134709;27;20200;-63
2023/07/22 05:19:00;;;;;;;18.15;17.25;;;;;;;-141.02;88.02;44802.34;5134458;27;20196;-57
2023/07/22 05:21:27;;;;;;;18.40;17.60;;;;;;;-141.02;86.95;44883.00;5133706;27;20220;-62
2023/07/22 05:23:54;;;;;;;17.60;16.80;;;;;;;-141.02;87.13;44946.41;5134645;27;20224;-62
2023/07/22 05:26:22;;;;;;;18.35;17.45;;;;;;;-141.02;84.64;44823.47;5134582;27;20279;-62
2023/07/22 05:28:49;;;;;;;18.88;17.98;;;;;;;-141.02;85.04;44758.16;5134433;27;20261;-63
2023/07/22 05:31:18;;;;;;;18.42;17.52;;;;;;;-141.02;83.90;44806.19;5134021;27;20257;-57
2023/07/22 05:33:45;;;;;;;18.38;17.48;;;;;;;-141.02;83.58;44956.00;5134088;27;20920;-61
2023/07/22 05:36:12;;;;;;;18.60;17.70;;;;;;;-141.02;84.25;45105.84;5134408;27;20235;-63
2023/07/22 05:38:39;;;;;;;19.70;18.70;;;;;;;-141.02;84.60;44859.97;5134058;27;20281;-58
2023/07/22 05:41:06;;;;;;;18.75;17.85;;;;;;;-141.02;84.99;45027.09;5134118;27;20268;-59
2023/07/22 05:43:33;;;;;;;18.55;17.65;;;;;;;-141.02;83.59;44952.16;5134545;27;20276;-64
2023/07/22 05:46:00;;;;;;;19.63;18.63;;;;;;;-141.02;83.21;44817.69;5134419;27;20226;-62
2023/07/22 05:48:28;;;;;;;19.95;18.95;;;;;;;-141.02;83.65;44679.41;5134106;27;20275;-60
2023/07/22 05:50:56;;;;;;;19.63;18.63;;;;;;;-141.02;84.25;44644.81;5134120;27;20276;-64
2023/07/22 05:53:23;;;;;;;19.60;18.60;;;;;;;-141.02;85.26;44633.31;5134287;27;20319;-62
2023/07/22 05:55:50;;;;;;;20.08;19.08;;;;;;;-141.02;84.03;44671.72;5133728;27;20283;-65
2023/07/22 05:58:18;;;;;;;20.00;19.00;;;;;;;-141.02;86.08;44760.06;5133870;27;20228;-63
2023/07/22 06:00:45;;;;;;;19.00;18.10;;;;;;;-141.02;85.18;44752.38;5133855;27;20257;-64
2023/07/22 06:03:12;;;;;;;19.27;18.38;;;;;;;-141.02;83.60;44777.38;5133782;27;20204;-63
2023/07/22 06:05:41;;;;;;;18.45;17.60;;;;;;;-141.02;85.06;45105.84;5133581;27;20192;-65
2023/07/22 06:08:08;;;;;;;19.60;18.60;;;;;;;-141.02;83.95;44967.53;5133871;27;20231;-63
2023/07/22 06:10:37;;;;;;;19.33;18.40;;;;;;;-141.02;83.46;44861.88;5133750;27;20231;-64
2023/07/22 06:13:04;;;;;;;19.05;18.15;;;;;;;-141.02;83.35;45007.88;5133462;27;20279;-59
2023/07/22 06:15:31;;;;;;;20.33;19.33;;;;;;;-141.02;82.77;44906.06;5133687;27;20200;-62
2023/07/22 06:17:58;;;;;;;19.80;18.80;;;;;;;-141.02;81.93;45013.63;5133359;27;20239;-62
2023/07/22 06:20:26;;;;;;;19.95;18.95;;;;;;;-141.02;81.13;45140.44;5133535;27;20219;-63
2023/07/22 06:22:54;;;;;;;20.63;19.63;;;;;;;-141.02;80.92;45205.75;5133549;27;20267;-62
2023/07/22 06:25:21;;;;;;;19.35;18.35;;;;;;;-141.02;79.44;45029.00;5133624;27;20192;-64
2023/07/22 06:27:48;;;;;;;19.75;18.75;;;;;;;-141.02;79.86;45117.38;5133197;27;20649;-63
2023/07/22 06:30:15;;;;;;;19.27;18.27;;;;;;;-141.02;78.64;45090.47;5133212;27;20188;-63
2023/07/22 06:32:42;;;;;;;19.33;18.33;;;;;;;-141.02;77.59;44921.44;5133015;27;20627;-61
2023/07/22 06:35:10;;;;;;;20.25;19.15;;;;;;;-141.02;78.03;44913.75;5132988;27;20627;-62
2023/07/22 06:37:37;;;;;;;21.10;20.02;;;;;;;-141.02;78.51;45297.94;5133669;27;20204;-64
2023/07/22 06:40:06;;;;;;;20.90;19.90;;;;;;;-141.02;80.53;45605.34;5133317;27;20633;-64
2023/07/22 06:42:33;;;;;;;21.65;20.55;;;;;;;-141.02;78.76;45426.69;5133271;27;20227;-64
2023/07/22 06:45:00;;;;;;;21.60;20.50;;;;;;;-141.02;78.19;45363.28;5133113;27;20199;-60
2023/07/22 06:47:27;;;;;;;21.90;20.80;;;;;;;-141.02;78.66;45103.94;5132988;27;20725;-64
2023/07/22 06:49:54;;;;;;;22.23;21.13;;;;;;;-141.02;79.70;45324.84;5133193;28;20203;-61
2023/07/22 06:52:21;;;;;;;22.10;21.00;;;;;;;-141.02;78.01;45334.47;5133182;28;20279;-63
2023/07/22 06:54:48;;;;;;;22.30;21.17;;;;;;;-141.02;76.70;45405.53;5133229;27;20218;-63
2023/07/22 06:57:17;;;;;;;21.98;20.88;;;;;;;-141.02;77.60;45490.06;5132833;28;20218;-63
2023/07/22 06:59:44;;;;;;;21.05;19.95;;;;;;;-141.02;76.05;45374.81;5133173;28;20224;-64
2023/07/22 07:02:11;;;;;;;20.10;19.10;;;;;;;-141.02;78.05;45394.00;5133072;27;20293;-65
2023/07/22 07:04:37;;;;;;;19.02;18.13;;;;;;;-141.02;77.44;45328.69;5132880;28;20196;-64
2023/07/22 07:07:05;;;;;;;19.13;18.23;;;;;;;-141.02;77.82;45593.81;5132858;28;20263;-63
2023/07/22 07:09:32;;;;;;;20.63;19.52;;;;;;;-141.02;76.70;45470.88;5133101;27;20249;-59
2023/07/22 07:11:59;;;;;;;19.55;18.55;;;;;;;-141.02;76.15;45593.81;5132794;28;20705;-60
2023/07/22 07:14:28;;;;;;;19.35;18.35;;;;;;;-141.02;74.62;46085.72;5132948;28;20196;-64
2023/07/22 07:16:55;;;;;;;19.70;18.70;;;;;;;-141.02;73.46;45732.16;5133541;28;20207;-60
2023/07/22 07:19:21;;;;;;;19.75;18.75;;;;;;;-141.02;73.41;45778.28;5132995;28;20224;-64
2023/07/22 07:21:49;;;;;;;19.85;18.83;;;;;;;-141.02;72.81;45870.50;5132781;28;20224;-64
2023/07/22 07:24:16;;;;;;;19.58;18.58;;;;;;;-141.02;72.28;45653.38;5132988;28;20224;-63
2023/07/22 07:26:43;;;;;;;19.35;18.35;;;;;;;-141.02;74.78;45547.72;5132496;28;20584;-60
2023/07/22 07:29:10;;;;;;;19.48;18.48;;;;;;;-141.02;72.78;45447.81;5132793;28;20654;-64
2023/07/22 07:31:38;;;;;;;19.35;18.35;;;;;;;-141.02;72.58;45522.75;5132714;27;20235;-61
2023/07/22 07:34:06;;;;;;;19.75;18.65;;;;;;;-141.02;73.29;45974.28;5132815;28;20239;-59
2023/07/22 07:36:33;;;;;;;19.58;18.58;;;;;;;-141.02;70.46;45751.38;5132503;27;20275;-62
2023/07/22 07:39:00;;;;;;;20.13;19.02;;;;;;;-141.02;71.56;45995.41;5132657;28;20257;-61
2023/07/22 07:41:27;;;;;;;20.30;19.15;;;;;;;-141.02;69.39;45981.97;5132667;28;20522;-64
2023/07/22 07:43:54;;;;;;;20.02;18.92;;;;;;;-141.02;68.64;45789.81;5132407;27;20250;-60
2023/07/22 07:46:23;;;;;;;20.38;19.17;;;;;;;-141.02;68.14;45812.88;5136167;27;20219;-64
2023/07/22 07:48:52;;;;;;;19.45;18.35;;;;;;;-141.02;71.12;45778.28;5136467;27;20200;-62
2023/07/22 07:51:21;;;;;;;19.73;18.63;;;;;;;-141.02;71.91;46397.03;5136493;27;20628;-64
2023/07/22 07:53:49;;;;;;;20.10;19.00;;;;;;;-141.02;69.38;45864.75;5136169;27;20773;-61
2023/07/22 07:56:17;;;;;;;20.10;19.00;;;;;;;-141.02;68.52;45732.16;5136353;27;20199;-65
2023/07/22 07:58:45;;;;;;;20.30;19.10;;;;;;;-141.02;69.31;45916.63;5136416;27;20197;-61
2023/07/22 08:01:12;;;;;;;20.05;18.90;;;;;;;-141.02;67.53;45759.06;5136193;27;20565;-62
2023/07/22 08:03:41;;;;;;;20.15;19.00;;;;;;;-141.02;68.62;45943.53;5136408;27;20228;-59
2023/07/22 08:06:10;;;;;;;18.55;17.55;;;;;;;-141.02;68.64;46535.41;5135893;27;20296;-64
2023/07/22 08:08:38;;;;;;;18.67;17.67;;;;;;;-141.02;65.38;45920.47;5136428;27;20202;-65
2023/07/22 08:11:07;;;;;;;18.33;17.33;;;;;;;-141.02;66.62;45736.00;5136722;27;20196;-60
2023/07/22 08:13:35;;;;;;;18.25;17.25;;;;;;;-141.02;66.54;45628.41;5135942;27;20287;-66
2023/07/22 08:16:03;;;;;;;18.20;17.20;;;;;;;-141.02;67.25;46333.63;5136014;27;20582;-63
2023/07/22 08:18:30;;;;;;;18.50;17.42;;;;;;;-141.02;66.13;46108.78;5135913;27;20279;-66
2023/07/22 08:20:58;;;;;;;18.50;17.40;;;;;;;-141.02;65.36;45726.41;5135561;27;20195;-64
2023/07/22 08:23:26;;;;;;;18.75;17.65;;;;;;;-141.02;64.36;45824.41;5135774;27;20196;-65
2023/07/22 08:25:53;;;;;;;19.58;18.48;;;;;;;-141.02;63.91;45801.34;5136368;27;20196;-61
2023/07/22 08:28:20;;;;;;;19.15;18.05;;;;;;;-141.02;64.07;46151.06;5135483;27;20199;-65
2023/07/22 08:30:49;;;;;;;19.90;18.70;;;;;;;-141.02;63.88;46252.91;5135422;27;20230;-64
2023/07/22 08:33:16;;;;;;;19.50;18.35;;;;;;;-141.02;63.95;46385.50;5135403;27;20275;-65
2023/07/22 08:35:43;;;;;;;20.38;19.17;;;;;;;-141.02;65.21;46748.75;5136297;27;20253;-64
2023/07/22 08:38:10;;;;;;;20.25;19.05;;;;;;;-141.02;63.78;46087.63;5135645;27;20196;-65
2023/07/22 08:40:40;;;;;;;20.23;19.02;;;;;;;-141.02;64.52;46062.66;5135551;27;20299;-61
2023/07/22 08:43:09;;;;;;;19.98;18.77;;;;;;;-141.02;64.28;46666.09;5135712;27;20273;-65
2023/07/22 08:45:37;;;;;;;19.77;18.67;;;;;;;-141.02;62.36;46206.78;5135146;27;20652;-64
2023/07/22 08:48:07;;;;;;;18.13;17.13;;;;;;;-141.02;61.61;46693.00;5135593;27;20197;-62
2023/07/22 08:50:42;;;;;;;19.13;17.98;;;;;;;-141.02;60.52;46577.69;5135142;27;20261;-65
2023/07/22 08:53:10;;;;;;;19.85;18.65;;;;;;;-141.02;62.97;47206.19;5135300;27;20188;-63
2023/07/22 08:55:40;;;;;;;18.33;17.23;;;;;;;-141.02;61.45;46619.97;5135020;27;20196;-62
2023/07/22 08:58:09;;;;;;;19.98;18.77;;;;;;;-141.02;61.75;46385.50;5134512;27;20189;-65
2023/07/22 09:00:36;;;;;;;20.17;18.98;;;;;;;-141.02;64.32;46470.06;5134873;27;20658;-65
2023/07/22 09:03:04;;;;;;;20.65;19.45;;;;;;;-141.02;61.04;46320.16;5134841;27;20314;-64
2023/07/22 09:05:32;;;;;;;20.55;19.35;;;;;;;-141.02;59.85;46708.38;5134822;27;20208;-62
2023/07/22 09:08:00;;;;;;;20.35;19.08;;;;;;;-141.02;58.77;46937.09;5135295;27;20550;-58
2023/07/22 09:10:29;;;;;;;20.63;19.42;;;;;;;-141.02;57.87;46395.13;5134652;27;20659;-57
2023/07/22 09:12:59;;;;;;;20.58;19.27;;;;;;;-141.02;58.80;46393.19;5134691;27;20235;-60
2023/07/22 09:15:26;;;;;;;20.80;19.60;;;;;;;-141.02;59.00;46393.19;5134480;27;20228;-60
2023/07/22 09:17:53;;;;;;;20.15;18.95;;;;;;;-141.02;58.30;47031.28;5134750;27;20671;-60
2023/07/22 09:20:22;;;;;;;20.30;19.10;;;;;;;-141.02;57.53;46985.16;5134523;27;20288;-62
2023/07/22 09:22:51;;;;;;;20.80;19.60;;;;;;;-141.02;57.38;47119.69;5134622;27;20587;-62
2023/07/22 09:25:20;;;;;;;20.17;18.98;;;;;;;-141.02;56.91;46731.44;5134324;27;20232;-62
2023/07/22 09:27:47;;;;;;;26.20;24.60;;;;;;;-141.02;56.75;46362.44;5134530;27;20279;-64
2023/07/22 09:30:27;;;;;;;20.02;18.83;;;;;;;-141.02;58.77;46020.38;5134432;27;20283;-59
2023/07/22 09:32:56;;;;;;;20.23;18.95;;;;;;;-141.02;60.19;46151.06;5134522;27;20202;-61
2023/07/22 09:35:23;;;;;;;20.38;19.10;;;;;;;-141.02;58.59;46299.03;5134465;27;20200;-58
2023/07/22 09:37:50;;;;;;;20.98;19.70;;;;;;;-141.02;58.13;46370.13;5134324;27;20202;-64
2023/07/22 09:40:20;;;;;;;20.17;18.98;;;;;;;-141.02;58.82;46327.84;5134340;27;20250;-58
2023/07/22 09:42:48;;;;;;;20.20;19.00;;;;;;;-141.02;58.12;46462.38;5134230;27;20231;-62
2023/07/22 09:45:15;;;;;;;20.13;18.92;;;;;;;-141.02;56.84;46735.28;5134268;27;20295;-65
2023/07/22 09:47:45;;;;;;;20.27;19.05;;;;;;;-141.02;55.92;46846.75;5133999;27;20287;-65
2023/07/22 09:50:15;;;;;;;20.63;19.33;;;;;;;-141.02;57.89;46965.94;5133844;27;20232;-58
2023/07/22 09:52:45;;;;;;;20.70;19.50;;;;;;;-141.02;56.41;46825.63;5133828;27;20218;-62
2023/07/22 09:55:13;;;;;;;20.52;19.30;;;;;;;-141.02;56.44;46942.88;5134044;27;20283;-65
2023/07/22 09:57:45;;;;;;;20.65;19.35;;;;;;;-141.02;58.69;45908.94;5134007;27;20199;-59
2023/07/22 10:00:14;;;;;;;20.40;19.20;;;;;;;-141.02;60.08;45980.03;5134227;27;20574;-65
2023/07/22 10:02:43;;;;;;;20.60;19.40;;;;;;;-141.02;58.41;46156.81;5133556;27;20228;-58
2023/07/22 10:05:14;;;;;;;20.38;19.13;;;;;;;-141.02;57.34;46635.34;5134355;27;20188;-58
2023/07/22 10:07:45;;;;;;;20.80;19.50;;;;;;;-141.02;56.46;46856.38;5133717;27;20184;-66
2023/07/22 10:10:13;;;;;;;19.77;18.58;;;;;;;-141.02;56.30;47367.66;5133540;27;20677;-60
2023/07/22 10:12:41;;;;;;;20.45;19.15;;;;;;;-141.02;55.63;47129.31;5133783;27;20201;-65
2023/07/22 10:15:10;;;;;;;25.25;23.42;;;;;;;-141.02;56.38;46931.34;5133717;27;20192;-62
2023/07/22 10:17:37;;;;;;;20.55;19.25;;;;;;;-141.02;56.70;47067.81;5133315;27;20192;-59
2023/07/22 10:20:07;;;;;;;18.75;17.65;;;;;;;-141.02;56.10;47235.03;5133654;27;20235;-58
2023/07/22 10:22:38;;;;;;;20.25;18.95;;;;;;;-141.02;54.40;47450.34;5133213;27;20215;-58
2023/07/22 10:25:07;;;;;;;20.80;19.50;;;;;;;-141.02;54.62;47761.78;5133554;27;20671;-61
2023/07/22 10:27:36;;;;;;;20.48;19.17;;;;;;;-141.02;55.33;47675.25;5133277;27;20195;-58
2023/07/22 10:30:04;;;;;;;20.33;19.02;;;;;;;-141.02;55.83;47431.09;5133188;27;20198;-59
2023/07/22 10:32:37;;;;;;;20.30;19.00;;;;;;;-141.02;55.98;46685.31;5133358;27;20228;-65
2023/07/22 10:35:04;;;;;;;20.55;19.25;;;;;;;-141.02;53.92;46274.03;5133570;27;20594;-66
2023/07/22 10:37:33;;;;;;;20.60;19.30;;;;;;;-141.02;54.95;46504.66;5133127;27;20739;-60
2023/07/22 10:40:17;;;;;;;20.50;19.20;;;;;;;-141.02;53.70;47527.22;5133306;27;20207;-63
2023/07/22 10:42:44;;;;;;;20.58;19.38;;;;;;;-141.02;51.30;46873.66;5132959;27;20304;-61
2023/07/22 10:45:25;;;;;;;20.27;19.08;;;;;;;-141.02;50.28;47077.41;5133127;27;20230;-58
2023/07/22 10:48:02;;;;;;;21.10;19.80;;;;;;;-141.02;49.92;47058.19;5133525;27;20252;-60
2023/07/22 10:50:40;;;;;;;20.88;19.58;;;;;;;-141.02;52.08;46412.41;5133325;27;20674;-66
2023/07/22 10:53:09;;;;;;;20.80;19.50;;;;;;;-141.02;52.08;45855.13;5133200;27;20264;-60
2023/07/22 10:56:21;;;;;;;21.10;19.80;;;;;;;-141.02;52.56;46010.78;5132854;28;20241;-58
2023/07/22 10:59:02;;;;;;;20.83;19.52;;;;;;;-141.02;53.53;47356.13;5133240;28;20267;-60
2023/07/22 11:01:34;;;;;;;20.77;19.48;;;;;;;-141.02;51.28;45707.19;5132793;28;20203;-59
2023/07/22 11:04:31;;;;;;;21.33;20.02;;;;;;;-141.02;51.14;46262.50;5132768;28;20200;-62
2023/07/22 11:07:00;;;;;;;20.35;19.15;;;;;;;-141.02;52.05;46520.03;5129773;27;20279;-66
2023/07/22 11:09:42;;;;;;;20.48;19.27;;;;;;;-141.02;52.03;46816.00;5132707;28;20637;-58
2023/07/22 11:12:15;;;;;;;20.00;18.80;;;;;;;-141.02;52.22;46212.53;5132736;28;20200;-58
2023/07/22 11:14:48;;;;;;;20.83;19.52;;;;;;;-141.02;52.53;46256.75;5133083;27;20706;-58
2023/07/22 11:17:16;;;;;;;21.08;19.77;;;;;;;-141.02;53.23;46308.63;5133026;27;20226;-58
2023/07/22 11:19:43;;;;;;;21.00;19.70;;;;;;;-141.02;52.58;46791.03;5133896;27;20220;-62
2023/07/22 11:22:10;;;;;;;21.02;19.73;;;;;;;-141.02;52.41;46960.16;5136664;27;20677;-61
2023/07/22 11:24:38;;;;;;;21.13;19.83;;;;;;;-141.02;51.05;47496.47;5137030;27;20192;-65
2023/07/22 11:27:06;;;;;;;70.38;66.30;;;;;;;-141.02;50.22;48002.09;5136972;27;20196;-60
2023/07/22 11:29:35;;;;;;;40.83;38.33;;;;;;;-141.02;50.03;47979.03;5136907;27;20196;-65
2023/07/22 11:32:03;;;;;;;58.55;55.28;;;;;;;-141.02;48.13;47786.75;5136646;27;20233;-61
2023/07/22 11:34:31;;;;;;;44.75;42.20;;;;;;;-141.02;48.29;47817.53;5136448;27;20202;-60
2023/07/22 11:36:58;;;;;;;46.03;43.40;;;;;;;-141.02;49.49;47431.09;5136408;27;20241;-58
2023/07/22 11:39:26;;;;;;;47.88;45.17;;;;;;;-141.02;50.33;46746.81;5136716;27;20200;-65
2023/07/22 11:41:54;;;;;;;42.97;40.58;;;;;;;-141.02;50.26;46927.50;5136276;27;20745;-59
2023/07/22 11:44:22;;;;;;;48.85;46.05;;;;;;;-141.02;50.00;46777.56;5136303;27;20275;-66
2023/07/22 11:46:54;;;;;;;46.50;43.88;;;;;;;-141.02;49.73;47246.56;5136469;27;20234;-59
2023/07/22 11:49:27;;;;;;;45.22;42.63;;;;;;;-141.02;49.50;47817.53;5136277;27;20191;-62
2023/07/22 11:51:56;;;;;;;45.60;43.05;;;;;;;-141.02;48.63;48007.88;5136128;27;20627;-63
2023/07/22 11:54:27;;;;;;;47.10;44.50;;;;;;;-141.02;48.97;47636.81;5136105;27;20591;-65
2023/07/22 11:56:57;;;;;;;21.58;20.17;;;;;;;-141.02;49.19;46823.69;5136415;27;20204;-65
2023/07/22 11:59:34;;;;;;;23.58;21.77;;;;;;;-141.02;48.74;46293.25;5136344;27;20287;-63
2023/07/22 12:02:05;;;;;;;21.63;20.23;;;;;;;-141.02;49.38;47042.81;5136290;27;20199;-65
2023/07/22 12:04:33;;;;;;;21.15;19.85;;;;;;;-141.02;49.91;47261.94;5136273;27;20195;-64
2023/07/22 12:07:00;;;;;;;21.85;20.45;;;;;;;-141.02;48.87;47004.38;5136152;27;20666;-65
2023/07/22 12:09:27;;;;;;;20.92;19.63;;;;;;;-141.02;49.63;47288.84;5135842;27;20191;-62
2023/07/22 12:11:59;;;;;;;21.67;20.17;;;;;;;-141.02;49.67;46892.88;5136185;27;20252;-62